Hathaway, MT (59333)

7:07 PM MDT on September 30, 2014 (GMT -0600)
RAWS COW CREEK ID US | Change Station
CLOSE
Current Station
Personal Weather Station
Location: Rosebud, MT
Elevation: 3228 ft
Nearby Weather Stations

Elev 3228 ft 46.03 °N, 106.19 °W | Updated 46 minutes ago

Overcast
Overcast
59 °F
Feels Like 59 °F
N
12
Wind Variable Wind from West
Gusts 22.0 mph

Today
High -- | Low -- °F
--% Chance of Precip.
Yesterday
High -- | Low -- °F
Precip. -- in
7:02 AM 6:46 PM
Waxing Crescent, 42% visible
Pressure 29.57 in
Visibility 10.0 miles
Clouds Overcast 7000 ft
Dew Point 46 °F
Humidity 63%
Rainfall 0.00 in
Snow Depth 0 in , 1 in , 0 in
UV 0 out of 12
Pollen .40 out of 12
Air Quality Not available.
Flu Activity Not available.
METAR KMLS 010053Z AUTO 31007KT 10SM -RA OVC070 14/10 A2958 RMK AO2 RAB04 SLP012 P0000 T01390100

More Conditions Fewer Conditions

Pressure 29.57 in
Visibility 10.0 miles
Clouds Overcast 7000 ft
Dew Point 46 °F
Humidity 63%
Rainfall 0.00 in
Snow Depth 0 in , 1 in , 0 in
UV 0 out of 12
Pollen .40 out of 12
Air Quality Not available.
Flu Activity Not available.
METAR KMLS 010053Z AUTO 31007KT 10SM -RA OVC070 14/10 A2958 RMK AO2 RAB04 SLP012 P0000 T01390100

More Conditions Fewer Conditions

10-Day Weather Forecast

Almanac

Astronomy

Sep. 30, 2014 Rise Set
Actual Time 7:02 AM MDT 6:46 PM MDT
Civil Twilight 6:32 AM MDT 7:16 PM MDT
Nautical Twilight 5:57 AM MDT 7:51 PM MDT
Astronomical Twilight 5:21 AM MDT 8:26 PM MDT
Moon 1:28 PM MDT (9/30) 11:04 PM MDT (9/30)
Length of Visible Light 12h 44m
Length of Day
11h 44m
Tomorrow will be 3m 14s shorter.
Waxing Crescent, 42% of the Moon is Illuminated
Today
Waxing Crescent
Oct 1
First Quarter
Oct 8
Full
Oct 15
Last Quarter
Oct 23
New

Today's Extremes

State Highs State Lows

Community

WunderPhotos

Upload Photos

1,757,805 photos uploaded!

Nearby

Snow Depth

Station Depth Elevation
Onion Park 0 in 7410 ft
Brackett Creek 1 in 7320 ft
Mule Creek 0 in 8300 ft
Banfield Mountain 0 in 5600 ft
Copper Camp 0 in 6950 ft

Earthquake Activity

City Distance Mag. Time & Date
No recent earthquake activity has been reported nearby.
Minimum magnitude displayed is 2.5.

Coastal Water Temperatures

Place Temperature
No Stations Reporting

Nearby Weather Stations